Time;durP1;ratioP1;P1;durP2;ratioP2;P2;SDS_P1;SDS_P2;PMS_P1;PMS_P2;Temp;Humidity;BMP_temperature;BMP_pressure;BME280_temperature;BME280_humidity;BME280_pressure;Samples;Min_cycle;Max_cycle;Signal;HPM_P1;HPM_P2
2023/01/14 00:00:26;;;;;;;3.97;1.70;;;;;;;7.81;69.52;100686.88;4969406;28;20075;-54
2023/01/14 00:02:52;;;;;;;10.82;1.98;;;;;;;7.84;69.27;100699.00;4970976;28;20114;-53
2023/01/14 00:05:17;;;;;;;4.03;1.70;;;;;;;7.86;69.36;100707.66;4965615;28;20563;-53
2023/01/14 00:07:43;;;;;;;6.15;1.20;;;;;;;7.87;69.50;100714.56;4968782;28;20584;-52
2023/01/14 00:10:09;;;;;;;7.82;1.55;;;;;;;7.86;69.11;100707.66;4972798;28;20442;-56
2023/01/14 00:12:35;;;;;;;7.95;1.30;;;;;;;7.88;69.28;100704.03;4962962;28;20554;-53
2023/01/14 00:15:00;;;;;;;6.13;1.50;;;;;;;7.90;69.18;100722.28;4971294;28;20082;-55
2023/01/14 00:17:25;;;;;;;6.22;1.35;;;;;;;7.89;69.05;100717.97;4970593;28;20079;-52
2023/01/14 00:19:51;;;;;;;6.80;1.83;;;;;;;7.89;69.28;100726.69;4966972;28;20137;-54
2023/01/14 00:22:16;;;;;;;4.20;1.05;;;;;;;7.87;69.44;100720.66;4968573;28;20091;-52
2023/01/14 00:24:42;;;;;;;2.92;1.20;;;;;;;7.85;69.83;100730.38;4966730;28;20104;-52
2023/01/14 00:27:07;;;;;;;8.13;1.67;;;;;;;7.82;70.16;100724.44;4970623;28;20089;-56
2023/01/14 00:29:35;;;;;;;6.78;2.00;;;;;;;7.76;70.37;100718.53;4966559;28;20083;-55
2023/01/14 00:32:03;;;;;;;4.43;1.58;;;;;;;7.75;70.32;100729.09;4970377;28;20095;-53
2023/01/14 00:34:30;;;;;;;5.97;1.83;;;;;;;7.75;70.48;100729.09;4964385;28;20080;-53
2023/01/14 00:36:57;;;;;;;3.67;1.30;;;;;;;7.76;70.40;100720.31;4965393;28;20102;-53
2023/01/14 00:39:24;;;;;;;5.50;1.13;;;;;;;7.76;70.42;100736.88;4965982;28;20076;-53
2023/01/14 00:41:50;;;;;;;5.43;1.38;;;;;;;7.76;70.21;100734.25;4967145;28;20105;-56
2023/01/14 00:44:16;;;;;;;3.75;1.15;;;;;;;7.70;70.82;100742.41;4969514;28;20466;-54
2023/01/14 00:46:41;;;;;;;8.07;1.58;;;;;;;7.60;71.13;100735.88;4969215;28;20549;-52
2023/01/14 00:49:14;;;;;;;7.25;1.73;;;;;;;7.54;71.20;100729.16;4968205;28;20095;-53
2023/01/14 00:51:39;;;;;;;7.82;1.35;;;;;;;7.47;71.39;100719.88;4961275;28;20083;-55
2023/01/14 00:54:05;;;;;;;6.35;1.33;;;;;;;7.42;71.64;100729.72;4969539;28;20077;-52
2023/01/14 00:56:30;;;;;;;4.15;1.50;;;;;;;7.38;71.89;100729.00;4969133;28;20581;-53
2023/01/14 00:58:56;;;;;;;6.10;1.90;;;;;;;7.37;71.94;100743.00;4967291;28;20083;-56
2023/01/14 01:01:22;;;;;;;5.47;1.73;;;;;;;7.38;71.96;100731.63;4966862;28;20086;-55
2023/01/14 01:03:50;;;;;;;5.10;1.70;;;;;;;7.37;71.88;100740.41;4967427;28;20169;-53
2023/01/14 01:06:18;;;;;;;6.55;1.55;;;;;;;7.38;71.78;100752.56;4966311;28;20080;-54
2023/01/14 01:08:44;;;;;;;4.20;1.30;;;;;;;7.41;71.74;100741.09;4972978;28;20071;-52
2023/01/14 01:11:10;;;;;;;7.82;1.45;;;;;;;7.44;71.72;100747.03;4967615;28;20154;-57
2023/01/14 01:13:36;;;;;;;5.38;1.30;;;;;;;7.52;71.58;100756.34;4964010;28;20095;-51
2023/01/14 01:16:05;;;;;;;5.05;1.92;;;;;;;7.54;71.76;100754.50;4965203;28;20087;-54
2023/01/14 01:18:31;;;;;;;4.15;1.65;;;;;;;7.57;71.45;100747.34;4966985;28;20439;-56
2023/01/14 01:21:05;;;;;;;5.38;1.38;;;;;;;7.61;71.16;100748.06;4961093;28;20618;-54
2023/01/14 01:23:31;;;;;;;11.23;1.35;;;;;;;7.66;71.25;100766.16;4965175;28;20099;-55
2023/01/14 01:26:01;;;;;;;8.20;1.55;;;;;;;7.70;71.04;100757.25;4964277;28;20087;-54
2023/01/14 01:28:27;;;;;;;9.13;1.55;;;;;;;7.72;71.07;100755.44;4965421;28;20071;-57
2023/01/14 01:30:52;;;;;;;4.65;1.67;;;;;;;7.73;71.07;100757.13;4963299;28;20534;-55
2023/01/14 01:33:18;;;;;;;6.95;1.40;;;;;;;7.75;70.80;100765.78;4964978;28;20099;-53
2023/01/14 01:35:43;;;;;;;6.47;1.25;;;;;;;7.78;70.81;100776.94;4964111;28;20130;-55
2023/01/14 01:38:09;;;;;;;4.93;1.00;;;;;;;7.83;70.75;100775.91;4963555;28;20543;-54
2023/01/14 01:40:34;;;;;;;6.47;1.35;;;;;;;7.86;70.52;100776.59;4967022;28;20087;-52
2023/01/14 01:43:00;;;;;;;10.50;1.58;;;;;;;7.88;70.50;100782.63;4969063;28;20138;-55
2023/01/14 01:45:45;;;;;;;4.07;1.38;;;;;;;7.87;70.41;100778.31;4969564;28;20095;-57
2023/01/14 01:48:14;;;;;;;9.60;1.73;;;;;;;7.88;70.46;100787.88;4965858;28;20173;-54
2023/01/14 01:50:40;;;;;;;4.32;0.70;;;;;;;7.88;70.24;100793.09;4968751;28;20534;-52
2023/01/14 01:53:07;;;;;;;4.20;1.00;;;;;;;7.90;69.97;100796.50;4969929;28;20862;-52
2023/01/14 01:55:36;;;;;;;4.10;1.20;;;;;;;7.90;69.96;100793.91;4970930;28;20075;-53
2023/01/14 01:58:04;;;;;;;6.68;1.20;;;;;;;7.92;70.34;100799.06;4965969;28;20079;-51
2023/01/14 02:00:30;;;;;;;5.55;1.30;;;;;;;7.92;70.04;100799.91;4970274;28;20075;-56
2023/01/14 02:03:17;;;;;;;5.82;0.93;;;;;;;7.91;69.91;100813.94;4973148;28;20153;-53
2023/01/14 02:05:43;;;;;;;6.28;1.88;;;;;;;7.91;69.71;100811.31;4973473;28;20119;-55
2023/01/14 02:08:09;;;;;;;3.92;1.05;;;;;;;7.91;69.65;100813.94;4974619;28;20592;-53
2023/01/14 02:10:44;;;;;;;7.63;1.17;;;;;;;7.93;69.69;100817.34;4969749;28;20461;-54
2023/01/14 02:13:39;;;;;;;4.25;1.08;;;;;;;7.91;69.33;100824.41;4963821;28;20458;-53
2023/01/14 02:16:16;;;;;;;2.80;1.15;;;;;;;7.93;69.51;100843.53;4963656;28;20075;-53
2023/01/14 02:19:26;;;;;;;5.57;1.80;;;;;;;7.92;69.13;100831.34;4971433;28;20125;-56
2023/01/14 02:22:21;;;;;;;3.58;1.23;;;;;;;7.91;69.31;100824.41;4970526;28;20214;-53
2023/01/14 02:24:56;;;;;;;5.53;1.17;;;;;;;7.91;69.44;100834.91;4971113;28;20091;-57
2023/01/14 02:27:39;;;;;;;6.22;0.93;;;;;;;7.85;69.50;100840.41;4969703;28;20087;-53
2023/01/14 02:30:26;;;;;;;7.50;1.73;;;;;;;7.82;69.55;100845.78;4969498;28;20083;-57
2023/01/14 02:33:14;;;;;;;4.38;0.98;;;;;;;7.85;69.21;100848.25;4970917;28;20107;-55
2023/01/14 02:35:46;;;;;;;3.92;0.57;;;;;;;7.86;69.13;100851.75;4974296;28;20512;-53
2023/01/14 02:38:29;;;;;;;5.28;1.15;;;;;;;7.90;69.22;100848.91;4967327;28;20091;-51
2023/01/14 02:41:17;;;;;;;4.78;0.82;;;;;;;7.90;69.01;100864.63;4964102;28;20083;-52
2023/01/14 02:44:07;;;;;;;7.75;1.48;;;;;;;7.88;69.30;100840.28;4962069;28;20111;-56
2023/01/14 02:46:50;;;;;;;6.55;1.10;;;;;;;7.87;69.05;100862.16;4965610;28;20134;-56
2023/01/14 02:49:23;;;;;;;7.00;1.15;;;;;;;7.84;69.29;100857.03;4966929;28;20107;-57
2023/01/14 02:51:48;;;;;;;4.45;2.03;;;;;;;7.78;69.42;100857.31;4969232;28;20087;-53
2023/01/14 02:54:16;;;;;;;3.92;1.00;;;;;;;7.73;69.46;100854.06;4964114;28;20059;-55
2023/01/14 02:56:43;;;;;;;4.38;1.17;;;;;;;7.72;69.54;100866.28;4968793;28;20493;-56
2023/01/14 02:59:24;;;;;;;3.83;1.05;;;;;;;7.74;69.81;100861.00;4968852;28;20080;-55
2023/01/14 03:02:24;;;;;;;2.92;1.10;;;;;;;7.74;69.67;100868.84;4972962;28;20107;-56
2023/01/14 03:04:55;;;;;;;5.40;1.23;;;;;;;7.76;69.64;100872.25;4968688;28;20099;-55
2023/01/14 03:07:37;;;;;;;1.87;0.93;;;;;;;7.75;69.85;100887.09;4966677;28;20087;-53
2023/01/14 03:10:25;;;;;;;6.70;1.20;;;;;;;7.73;69.72;100877.63;4968829;28;20083;-57
2023/01/14 03:13:13;;;;;;;6.43;1.30;;;;;;;7.71;69.80;100876.84;4961526;28;20103;-55
2023/01/14 03:15:46;;;;;;;5.50;1.20;;;;;;;7.71;69.80;100879.47;4968710;28;20671;-50
2023/01/14 03:18:19;;;;;;;2.70;1.40;;;;;;;7.73;70.13;100886.31;4969328;28;20079;-54
2023/01/14 03:20:52;;;;;;;8.73;1.85;;;;;;;7.71;70.13;100882.94;4963004;28;20090;-53
2023/01/14 03:23:21;;;;;;;5.53;2.08;;;;;;;7.67;70.34;100888.34;4963699;28;20191;-55
2023/01/14 03:25:49;;;;;;;4.00;1.15;;;;;;;7.68;70.40;100895.28;4966796;28;20095;-53
2023/01/14 03:28:19;;;;;;;2.85;0.98;;;;;;;7.69;70.19;100899.63;4967610;28;20107;-56
2023/01/14 03:30:58;;;;;;;4.47;1.23;;;;;;;7.72;70.29;100886.41;4965086;28;20087;-54
2023/01/14 03:33:32;;;;;;;5.03;1.13;;;;;;;7.75;70.35;100902.00;4968067;28;20099;-52
2023/01/14 03:35:59;;;;;;;4.85;1.33;;;;;;;7.77;69.87;100905.41;4964941;28;20114;-53
2023/01/14 03:38:31;;;;;;;8.23;1.95;;;;;;;7.78;70.16;100900.06;4962016;28;20079;-51
2023/01/14 03:40:59;;;;;;;3.13;1.17;;;;;;;7.78;70.00;100909.72;4961200;28;20086;-57
2023/01/14 03:43:51;;;;;;;4.75;1.10;;;;;;;7.77;70.29;100910.63;4962971;28;20202;-55
2023/01/14 03:46:17;;;;;;;3.83;1.27;;;;;;;7.77;70.11;100910.63;4965698;28;20094;-55
2023/01/14 03:48:43;;;;;;;2.55;1.13;;;;;;;7.76;70.25;100924.66;4962977;28;20083;-55
2023/01/14 03:51:11;;;;;;;3.85;1.17;;;;;;;7.80;70.05;100923.56;4961099;28;20598;-53
2023/01/14 03:53:47;;;;;;;6.50;1.50;;;;;;;7.84;69.94;100916.47;4965625;28;20122;-53
2023/01/14 03:56:37;;;;;;;5.80;2.25;;;;;;;7.84;69.97;100927.78;4961310;28;20083;-55
2023/01/14 03:59:09;;;;;;;10.30;2.00;;;;;;;7.86;70.01;100928.56;4966939;28;20161;-52
2023/01/14 04:01:51;;;;;;;5.75;1.40;;;;;;;7.87;69.67;100934.63;4967412;28;20083;-57
2023/01/14 04:04:17;;;;;;;6.82;1.70;;;;;;;7.89;69.82;100946.78;4970967;28;20111;-55
2023/01/14 04:06:43;;;;;;;7.88;1.30;;;;;;;7.89;70.06;100951.16;4966334;28;20477;-51
2023/01/14 04:09:09;;;;;;;4.93;1.30;;;;;;;7.90;69.72;100953.72;4964439;28;20082;-54
2023/01/14 04:11:35;;;;;;;6.22;1.52;;;;;;;7.91;69.85;100958.03;4963261;28;20083;-55
2023/01/14 04:16:45;;;;;;;2.70;1.17;;;;;;;7.90;69.88;100963.34;4966249;28;20506;-53
2023/01/14 04:19:10;;;;;;;8.65;1.08;;;;;;;7.87;69.97;100964.31;4968997;28;20739;-54
2023/01/14 04:21:36;;;;;;;8.15;1.75;;;;;;;7.89;69.93;100966.88;4971896;28;20084;-54
2023/01/14 04:24:01;;;;;;;5.07;1.13;;;;;;;7.87;69.83;100964.31;4970132;28;20091;-53
2023/01/14 04:26:30;;;;;;;6.20;1.30;;;;;;;7.89;70.13;100978.22;4964841;28;20079;-53
2023/01/14 04:28:55;;;;;;;6.00;0.90;;;;;;;7.91;70.11;100973.78;4968408;28;20227;-53
2023/01/14 04:31:21;;;;;;;4.35;1.65;;;;;;;7.91;70.18;100980.75;4964929;28;20946;-53
2023/01/14 04:33:47;;;;;;;2.78;0.90;;;;;;;7.90;69.67;100972.06;4968079;28;20166;-56
2023/01/14 04:36:13;;;;;;;5.78;1.58;;;;;;;7.88;69.82;100980.88;4964682;28;20483;-52
2023/01/14 04:38:39;;;;;;;5.05;0.90;;;;;;;7.87;69.83;100985.28;4966412;28;20093;-52
2023/01/14 04:41:04;;;;;;;5.18;1.65;;;;;;;7.85;69.73;100984.50;4961305;28;20083;-53
2023/01/14 04:43:30;;;;;;;5.38;1.98;;;;;;;7.87;69.95;100987.03;4962748;28;20095;-54
2023/01/14 04:45:55;;;;;;;6.38;1.33;;;;;;;7.87;70.05;100982.66;4963517;28;20095;-53
2023/01/14 04:48:23;;;;;;;5.15;1.10;;;;;;;7.88;69.75;100986.13;4967335;28;20079;-50
2023/01/14 04:50:50;;;;;;;4.70;1.08;;;;;;;7.86;69.93;101004.53;4966643;28;20087;-56
2023/01/14 04:53:23;;;;;;;5.57;0.85;;;;;;;7.84;70.12;100990.66;4969011;28;20150;-52
2023/01/14 04:55:53;;;;;;;6.00;1.10;;;;;;;7.85;69.82;100999.38;4961549;28;20079;-57
2023/01/14 04:58:19;;;;;;;8.00;1.10;;;;;;;7.85;69.91;101010.69;4963012;28;20083;-56
2023/01/14 05:00:45;;;;;;;5.35;1.00;;;;;;;7.86;69.84;101001.91;4967279;28;20075;-53
2023/01/14 05:03:13;;;;;;;4.07;0.88;;;;;;;7.84;70.11;101014.22;4966569;28;20095;-53
2023/01/14 05:05:39;;;;;;;5.95;1.65;;;;;;;7.84;70.09;101010.78;4963732;28;20095;-51
2023/01/14 05:08:06;;;;;;;6.55;1.05;;;;;;;7.81;69.98;101006.50;4960653;28;20083;-52
2023/01/14 05:10:32;;;;;;;4.78;0.70;;;;;;;7.75;70.05;100996.28;4968930;28;20182;-50
2023/01/14 05:12:57;;;;;;;3.90;0.85;;;;;;;7.74;70.12;101010.31;4964004;28;20223;-53
2023/01/14 05:15:47;;;;;;;3.45;0.88;;;;;;;7.73;70.26;101011.22;4971184;28;20563;-51
2023/01/14 05:18:15;;;;;;;6.38;1.00;;;;;;;7.72;70.17;101015.59;4971008;28;20455;-56
2023/01/14 05:20:42;;;;;;;1.88;0.70;;;;;;;7.75;70.12;101022.47;4973569;28;20500;-53
2023/01/14 05:23:14;;;;;;;4.65;1.10;;;;;;;7.75;70.10;101032.97;4970084;28;20478;-54
2023/01/14 05:25:40;;;;;;;7.97;2.25;;;;;;;7.74;70.27;101028.63;4970092;28;20130;-54
2023/01/14 05:28:09;;;;;;;2.50;0.73;;;;;;;7.73;70.55;101030.38;4975005;28;20087;-53
2023/01/14 05:30:35;;;;;;;5.60;1.15;;;;;;;7.71;70.30;101032.25;4973360;28;20087;-55
2023/01/14 05:33:01;;;;;;;2.58;0.70;;;;;;;7.69;70.86;101038.44;4973393;28;20111;-52
2023/01/14 05:35:27;;;;;;;7.35;1.52;;;;;;;7.67;71.09;101037.66;4973643;28;20067;-54
2023/01/14 05:37:52;;;;;;;3.17;1.00;;;;;;;7.69;71.06;101033.19;4969617;28;20075;-53
2023/01/14 05:40:18;;;;;;;5.03;0.80;;;;;;;7.68;71.13;101040.22;4969722;28;20076;-55
2023/01/14 05:48:12;;;;;;;3.38;1.10;;;;;;;7.66;71.04;101047.28;4974435;28;20457;-54
2023/01/14 05:50:38;;;;;;;4.70;0.90;;;;;;;7.66;71.34;101057.75;4972200;28;20535;-53
2023/01/14 05:53:06;;;;;;;3.63;0.93;;;;;;;7.63;71.24;101061.38;4973510;28;20443;-55
2023/01/14 05:55:32;;;;;;;6.45;1.50;;;;;;;7.66;71.36;101060.38;4969893;28;20079;-54
2023/01/14 05:58:04;;;;;;;4.60;1.13;;;;;;;7.66;71.34;101054.28;4969680;28;20087;-54
2023/01/14 06:06:21;;;;;;;3.67;0.90;;;;;;;7.64;71.22;101056.97;4966036;28;20233;-55
2023/01/14 06:08:51;;;;;;;3.92;0.82;;;;;;;7.66;71.11;101067.38;4970309;28;20082;-56
2023/01/14 06:11:20;;;;;;;3.75;1.02;;;;;;;7.66;71.32;101075.22;4971319;28;20071;-52
2023/01/14 06:13:48;;;;;;;5.30;1.20;;;;;;;7.66;71.21;101065.63;4972695;28;20099;-54
2023/01/14 06:16:14;;;;;;;3.47;0.90;;;;;;;7.65;71.29;101078.75;4967184;28;20064;-56
2023/01/14 06:18:43;;;;;;;6.13;1.50;;;;;;;7.63;71.40;101069.22;4975514;28;20079;-53
2023/01/14 06:21:14;;;;;;;3.10;0.90;;;;;;;7.64;71.50;101067.44;4970833;28;20079;-56
2023/01/14 06:23:40;;;;;;;5.00;1.17;;;;;;;7.67;71.30;101076.94;4969559;28;20106;-54
2023/01/14 06:26:14;;;;;;;5.28;0.80;;;;;;;7.66;71.35;101080.47;4964862;28;20107;-55
2023/01/14 06:28:40;;;;;;;6.97;1.27;;;;;;;7.66;71.61;101072.59;4969342;28;20094;-53
2023/01/14 06:31:17;;;;;;;4.10;0.93;;;;;;;7.62;71.19;101083.22;4971817;28;20079;-52
2023/01/14 06:33:43;;;;;;;3.22;0.70;;;;;;;7.60;71.33;101081.56;4970444;28;20996;-56
2023/01/14 06:36:10;;;;;;;5.32;0.90;;;;;;;7.54;71.33;101069.56;4970205;28;20067;-52
2023/01/14 06:38:37;;;;;;;4.93;0.95;;;;;;;7.46;71.95;101064.63;4966186;28;20075;-53
2023/01/14 06:41:05;;;;;;;4.65;0.80;;;;;;;7.37;71.99;101074.63;4962964;28;20083;-52
2023/01/14 06:43:30;;;;;;;3.63;1.40;;;;;;;7.24;72.38;101074.25;4970278;28;20095;-52
2023/01/14 06:45:57;;;;;;;5.78;0.90;;;;;;;7.14;72.61;101068.53;4965583;28;20088;-52
2023/01/14 06:48:24;;;;;;;5.38;1.08;;;;;;;7.06;72.99;101081.03;4972839;28;20166;-55
2023/01/14 06:50:50;;;;;;;6.18;1.38;;;;;;;7.00;73.17;101082.13;4966269;28;20075;-54
2023/01/14 06:53:15;;;;;;;5.90;1.80;;;;;;;7.04;73.31;101088.94;4967356;28;20098;-52
2023/01/14 06:55:41;;;;;;;6.85;2.13;;;;;;;7.06;73.37;101079.28;4973042;28;20166;-54
2023/01/14 06:58:06;;;;;;;8.07;1.27;;;;;;;7.09;73.23;101084.41;4969267;28;20083;-51
2023/01/14 07:00:32;;;;;;;5.20;1.40;;;;;;;7.13;73.03;101093.81;4953150;28;20182;-52
2023/01/14 07:02:58;;;;;;;5.82;1.25;;;;;;;7.20;73.13;101096.22;4955387;28;22045;-52
2023/01/14 07:05:23;;;;;;;6.95;1.90;;;;;;;7.26;73.46;101099.47;4959497;28;20507;-51
2023/01/14 07:07:49;;;;;;;2.60;1.02;;;;;;;7.30;73.38;101095.81;4963650;28;20098;-52
2023/01/14 07:10:17;;;;;;;3.83;0.80;;;;;;;7.30;73.62;101092.31;4961815;28;20095;-55
2023/01/14 07:12:47;;;;;;;5.22;1.52;;;;;;;7.35;73.14;101097.38;4959242;28;20109;-51
2023/01/14 07:15:14;;;;;;;8.85;1.25;;;;;;;7.37;73.43;101092.94;4956866;28;20079;-53
2023/01/14 07:17:40;;;;;;;3.10;1.30;;;;;;;7.37;73.67;101091.19;4955699;28;20230;-52
2023/01/14 07:20:07;;;;;;;5.63;1.58;;;;;;;7.39;73.33;101093.75;4961020;28;22362;-52
2023/01/14 07:22:32;;;;;;;5.38;1.52;;;;;;;7.33;73.59;101092.22;4968906;28;20107;-53
2023/01/14 07:25:01;;;;;;;5.55;1.65;;;;;;;7.27;73.64;101100.28;4969224;28;20150;-53
2023/01/14 07:27:30;;;;;;;9.50;1.60;;;;;;;7.25;73.77;101089.06;4994561;23;20112;-53
2023/01/14 07:29:57;;;;;;;7.40;2.50;;;;;;;7.23;73.59;101093.50;4939054;28;20107;-54
2023/01/14 07:32:23;;;;;;;4.88;1.30;;;;;;;7.16;73.98;101095.50;4940105;28;20091;-53
2023/01/14 07:34:49;;;;;;;5.55;1.50;;;;;;;7.11;74.21;101087.78;4951440;28;20089;-54
2023/01/14 07:37:14;;;;;;;4.47;1.23;;;;;;;7.11;74.20;101100.88;4950622;28;20446;-55
2023/01/14 07:39:40;;;;;;;7.13;1.65;;;;;;;7.07;74.09;101099.31;4931367;29;20080;-54
2023/01/14 07:42:05;;;;;;;7.63;1.73;;;;;;;7.04;74.37;101098.53;4930549;29;20091;-57
2023/01/14 07:44:31;;;;;;;4.38;1.50;;;;;;;7.00;74.48;101109.16;4930879;29;20091;-54
2023/01/14 07:46:57;;;;;;;5.95;1.15;;;;;;;7.04;74.49;101109.88;4930152;29;20547;-56
2023/01/14 07:49:22;;;;;;;7.13;1.98;;;;;;;7.14;74.01;101113.00;4927042;29;20092;-55
2023/01/14 07:51:49;;;;;;;3.78;1.30;;;;;;;7.22;73.66;101113.56;4934641;29;20084;-56
2023/01/14 07:54:15;;;;;;;4.82;1.75;;;;;;;7.29;73.78;101109.81;4931241;29;20085;-54
2023/01/14 07:56:41;;;;;;;8.43;1.75;;;;;;;7.36;73.39;101109.56;4933659;29;20088;-57
2023/01/14 07:59:07;;;;;;;5.70;1.58;;;;;;;7.38;73.49;101100.75;4928306;29;20179;-56
2023/01/14 08:01:32;;;;;;;4.15;1.35;;;;;;;7.40;73.15;101095.44;4931000;29;20080;-55
2023/01/14 08:03:58;;;;;;;8.00;1.80;;;;;;;7.41;73.32;101098.00;4930317;29;20084;-56
2023/01/14 08:06:24;;;;;;;7.55;1.48;;;;;;;7.44;72.93;101103.13;4930236;29;20160;-55
2023/01/14 08:08:49;;;;;;;8.60;1.77;;;;;;;7.47;72.90;101110.03;4929677;29;20096;-54
2023/01/14 08:11:15;;;;;;;8.43;1.65;;;;;;;7.50;72.77;101104.66;4932897;29;20099;-56
2023/01/14 08:13:40;;;;;;;11.73;2.47;;;;;;;7.52;72.87;101105.44;4929958;29;20102;-56
2023/01/14 08:16:07;;;;;;;6.97;1.73;;;;;;;7.57;72.72;101110.50;4933113;29;20080;-56
2023/01/14 08:18:34;;;;;;;5.53;1.48;;;;;;;7.60;72.25;101098.16;4933466;29;20718;-57
2023/01/14 08:21:05;;;;;;;5.97;1.83;;;;;;;7.66;72.23;101101.41;4929678;28;20092;-54
2023/01/14 08:23:34;;;;;;;5.38;1.23;;;;;;;7.71;72.37;101110.81;4929730;29;20120;-54
2023/01/14 08:26:01;;;;;;;11.90;1.75;;;;;;;7.73;71.87;101103.72;4928507;29;20096;-55
2023/01/14 08:28:27;;;;;;;5.57;1.33;;;;;;;7.75;71.95;101106.31;4929868;29;20162;-54
2023/01/14 08:31:03;;;;;;;9.93;1.67;;;;;;;7.78;71.57;101100.97;4930650;29;20178;-55
2023/01/14 08:33:29;;;;;;;6.90;3.25;;;;;;;7.83;71.58;101106.84;4925075;29;20143;-55
2023/01/14 08:35:54;;;;;;;9.07;1.70;;;;;;;7.87;71.31;101105.81;4930928;29;20076;-55
2023/01/14 08:38:20;;;;;;;6.55;1.60;;;;;;;7.91;71.46;101102.16;4928634;29;20096;-55
2023/01/14 08:40:48;;;;;;;7.68;1.17;;;;;;;7.96;71.16;101093.22;4926529;29;20117;-54
2023/01/14 08:43:14;;;;;;;3.92;1.10;;;;;;;7.98;70.93;101094.03;4919793;29;20536;-57
2023/01/14 08:45:41;;;;;;;7.75;2.20;;;;;;;8.04;71.17;101102.50;4929750;29;20108;-54
2023/01/14 08:48:06;;;;;;;8.45;2.40;;;;;;;8.07;70.64;101106.78;4923329;29;20104;-56
2023/01/14 08:50:32;;;;;;;9.77;2.00;;;;;;;8.08;70.33;101100.63;4932148;29;20494;-55
2023/01/14 08:52:57;;;;;;;7.85;2.03;;;;;;;8.11;70.65;101097.84;4924384;29;20083;-56
2023/01/14 08:55:23;;;;;;;3.95;1.45;;;;;;;8.18;70.39;101095.81;4944352;28;20076;-56
2023/01/14 08:57:48;;;;;;;7.28;1.80;;;;;;;8.18;70.16;101104.53;4931526;29;20099;-56
2023/01/14 09:00:14;;;;;;;6.82;2.13;;;;;;;8.20;70.12;101107.09;4927184;29;20083;-54
2023/01/14 09:02:40;;;;;;;6.60;1.85;;;;;;;8.21;70.23;101103.56;4932497;29;20080;-57
2023/01/14 09:05:05;;;;;;;11.90;2.58;;;;;;;8.21;69.87;101112.28;4929388;29;20088;-57
2023/01/14 09:18:27;;;;;;;8.95;1.10;;;;;;;8.34;69.46;101128.34;4930345;29;20099;-56
2023/01/14 09:20:53;;;;;;;6.57;1.77;;;;;;;8.37;69.43;101133.47;4929960;29;20084;-57
2023/01/14 09:23:19;;;;;;;8.23;3.05;;;;;;;8.40;69.56;101135.09;4933266;29;20155;-58
2023/01/14 09:25:44;;;;;;;10.98;1.63;;;;;;;8.43;69.19;101140.22;4928871;29;20088;-54
2023/01/14 09:28:11;;;;;;;10.18;2.25;;;;;;;8.47;69.26;101136.56;4929810;29;20703;-57
2023/01/14 09:30:36;;;;;;;11.88;2.38;;;;;;;8.50;69.22;101141.69;4933505;29;20084;-57
2023/01/14 09:33:04;;;;;;;11.02;1.95;;;;;;;8.57;69.10;101136.19;4931499;29;20135;-57
2023/01/14 09:35:30;;;;;;;4.55;1.58;;;;;;;8.63;68.89;101146.41;4945352;28;20072;-57
2023/01/14 09:37:56;;;;;;;4.47;1.55;;;;;;;8.68;68.74;101149.69;4925159;29;20108;-57
2023/01/14 09:40:21;;;;;;;8.43;1.98;;;;;;;8.71;68.79;101136.44;4929418;29;20080;-55
2023/01/14 09:42:49;;;;;;;3.72;1.15;;;;;;;8.72;68.72;101139.91;4933708;29;20096;-56
2023/01/14 09:45:28;;;;;;;6.03;1.50;;;;;;;8.71;68.60;101139.06;4927477;29;20189;-58
2023/01/14 09:47:57;;;;;;;7.20;2.90;;;;;;;8.65;68.87;101129.69;4929738;29;20100;-57
2023/01/14 09:50:37;;;;;;;6.18;1.30;;;;;;;8.50;69.24;101127.72;4931671;29;20082;-58
2023/01/14 09:53:03;;;;;;;7.65;1.63;;;;;;;8.39;69.46;101122.91;4928749;29;20154;-56
2023/01/14 09:55:36;;;;;;;5.40;1.40;;;;;;;8.24;69.79;101122.63;4927556;29;20132;-57
2023/01/14 09:58:20;;;;;;;9.27;1.70;;;;;;;8.04;70.19;101114.75;4927330;29;20579;-55
2023/01/14 10:00:55;;;;;;;5.32;1.15;;;;;;;7.96;70.75;101114.19;4932657;29;20606;-56
2023/01/14 10:03:38;;;;;;;4.68;1.40;;;;;;;7.92;71.01;101109.09;4932784;29;20079;-57
2023/01/14 10:06:12;;;;;;;6.35;1.73;;;;;;;7.93;70.70;101095.09;4937220;29;20088;-56
2023/01/14 10:08:45;;;;;;;14.13;2.55;;;;;;;8.00;70.91;101090.44;4926927;29;20111;-54
2023/01/14 10:11:12;;;;;;;8.45;2.50;;;;;;;8.14;70.62;101099.50;4934073;29;20163;-54
2023/01/14 10:14:02;;;;;;;8.80;1.65;;;;;;;8.26;70.24;101098.97;4933016;29;20074;-54
2023/01/14 10:16:47;;;;;;;8.52;1.98;;;;;;;8.47;69.83;101097.22;4925120;29;20100;-53
2023/01/14 10:19:28;;;;;;;7.00;2.70;;;;;;;8.63;69.52;101101.81;4932745;29;20100;-54
2023/01/14 10:22:03;;;;;;;7.85;2.03;;;;;;;8.69;69.21;101084.03;4931068;29;20080;-58
2023/01/14 10:24:29;;;;;;;5.53;2.88;;;;;;;8.80;69.11;101080.94;4933153;29;20087;-56
2023/01/14 10:26:56;;;;;;;11.77;2.38;;;;;;;8.90;69.00;101084.00;4931397;29;20120;-57
2023/01/14 10:29:23;;;;;;;8.98;2.30;;;;;;;9.00;68.74;101076.53;4932322;29;20126;-56
2023/01/14 10:32:01;;;;;;;8.25;2.70;;;;;;;9.05;68.37;101064.06;4933300;29;20083;-54
2023/01/14 10:34:39;;;;;;;8.80;2.38;;;;;;;9.09;68.46;101065.63;4931972;29;20068;-55
2023/01/14 10:37:08;;;;;;;10.25;1.75;;;;;;;9.12;68.33;101059.38;4926754;29;20072;-54
2023/01/14 10:39:34;;;;;;;7.40;1.88;;;;;;;9.06;68.48;101052.66;4932076;29;20086;-55
2023/01/14 10:42:01;;;;;;;3.78;1.48;;;;;;;9.04;68.54;101045.78;4930228;29;20080;-55
2023/01/14 10:44:28;;;;;;;12.25;3.28;;;;;;;9.08;68.60;101042.06;4926682;29;20089;-54
2023/01/14 10:46:57;;;;;;;9.32;2.10;;;;;;;9.09;68.37;101044.63;4929627;29;20158;-55
2023/01/14 10:49:39;;;;;;;7.78;2.00;;;;;;;9.15;68.27;101044.31;4921438;29;20093;-55
2023/01/14 10:52:36;;;;;;;8.27;2.72;;;;;;;9.12;67.95;101044.50;4924926;29;20076;-55
2023/01/14 10:55:11;;;;;;;9.93;3.13;;;;;;;9.08;68.29;101032.44;4919457;29;20084;-55
2023/01/14 10:58:08;;;;;;;16.52;4.75;;;;;;;8.99;68.10;101030.25;4930020;29;20551;-54
2023/01/14 11:00:39;;;;;;;11.02;2.67;;;;;;;8.96;68.43;101022.50;4921370;29;20592;-54
2023/01/14 11:03:29;;;;;;;11.70;3.75;;;;;;;8.92;68.54;101018.31;4931386;29;20083;-54
2023/01/14 11:05:59;;;;;;;8.85;2.00;;;;;;;8.85;68.35;101002.84;4928394;29;20088;-57
2023/01/14 11:08:50;;;;;;;9.82;2.97;;;;;;;8.82;67.87;101010.00;4927567;29;20124;-55
2023/01/14 11:11:20;;;;;;;3.63;1.20;;;;;;;8.82;67.74;101008.25;4922049;29;20172;-54
2023/01/14 11:13:48;;;;;;;4.70;1.83;;;;;;;8.84;67.47;101000.28;4929653;29;20084;-57
2023/01/14 11:16:27;;;;;;;6.45;1.98;;;;;;;8.88;67.07;101001.88;4927661;29;20099;-55
2023/01/14 11:19:04;;;;;;;12.48;2.67;;;;;;;8.94;66.99;100984.97;4926753;29;20165;-55
2023/01/14 11:21:36;;;;;;;7.85;2.25;;;;;;;8.95;66.71;100987.53;4926579;29;20084;-54
2023/01/14 11:24:07;;;;;;;5.95;1.30;;;;;;;8.97;66.98;100971.72;4925594;29;20102;-54
2023/01/14 11:26:36;;;;;;;9.90;2.97;;;;;;;9.01;66.68;100978.50;4930931;29;20095;-54
2023/01/14 11:29:20;;;;;;;10.35;3.72;;;;;;;9.04;66.32;100973.13;4934286;29;20104;-55
2023/01/14 11:31:48;;;;;;;14.70;3.92;;;;;;;9.10;66.72;100972.84;4924942;29;20515;-54
2023/01/14 11:34:38;;;;;;;13.15;3.13;;;;;;;9.11;66.12;100971.91;4932725;29;20111;-55
2023/01/14 11:37:09;;;;;;;21.75;7.95;;;;;;;9.12;65.89;100963.13;4923584;29;20083;-54
2023/01/14 11:39:36;;;;;;;17.50;4.90;;;;;;;9.13;65.98;100962.19;4929056;29;20535;-55
2023/01/14 11:42:21;;;;;;;9.48;3.22;;;;;;;9.15;65.49;100949.81;4925559;29;20091;-55
2023/01/14 11:45:03;;;;;;;12.70;3.15;;;;;;;9.20;65.47;100946.13;4928832;29;20100;-55
2023/01/14 11:47:30;;;;;;;14.07;2.83;;;;;;;9.20;65.67;100944.38;4930053;29;20096;-56
2023/01/14 11:50:12;;;;;;;8.38;2.85;;;;;;;9.20;65.27;100939.13;4924569;29;20108;-55
2023/01/14 11:52:37;;;;;;;13.75;3.30;;;;;;;9.24;65.50;100932.75;4923860;29;20084;-55
2023/01/14 11:55:07;;;;;;;11.52;2.85;;;;;;;9.27;65.35;100930.00;4921190;29;20463;-54
2023/01/14 11:57:33;;;;;;;12.38;2.17;;;;;;;9.30;65.40;100921.97;4922635;29;20100;-56
2023/01/14 11:59:58;;;;;;;9.15;1.85;;;;;;;9.30;65.18;100918.50;4929770;29;20088;-55
2023/01/14 12:02:36;;;;;;;10.85;2.10;;;;;;;9.29;65.06;100906.31;4922743;29;20107;-56
2023/01/14 12:05:18;;;;;;;11.18;3.38;;;;;;;9.31;65.08;100899.16;4930823;29;20080;-54
2023/01/14 12:07:50;;;;;;;15.65;4.40;;;;;;;9.29;64.73;100904.50;4922681;29;20560;-54
2023/01/14 12:10:27;;;;;;;16.63;4.68;;;;;;;9.25;64.63;100891.63;4916374;29;20096;-58